createdAt,value
2017-10-09T00:02:50.167Z,2.0
2017-10-09T00:13:35.167Z,2.9
2017-10-09T00:23:48.753Z,1.8
2017-10-09T00:34:03.100Z,3.2
2017-10-09T00:44:17.313Z,2.0
2017-10-09T00:54:31.318Z,2.5
2017-10-09T01:04:47.094Z,2.5
2017-10-09T01:15:00.894Z,1.0
2017-10-09T01:25:15.243Z,1.5
2017-10-09T01:36:00.409Z,2.2
2017-10-09T01:46:13.687Z,1.5
2017-10-09T01:56:28.490Z,1.4
2017-10-09T02:06:41.940Z,1.5
2017-10-09T02:16:55.084Z,2.2
2017-10-09T02:27:08.474Z,3.1
2017-10-09T02:37:22.983Z,1.7
2017-10-09T02:47:36.853Z,2.6
2017-10-09T02:57:51.728Z,2.4
2017-10-09T03:08:05.106Z,2.1
2017-10-09T03:18:16.436Z,1.8
2017-10-09T03:28:30.579Z,7.4
2017-10-09T03:38:52.179Z,3.4
2017-10-09T03:49:06.205Z,3.4
2017-10-09T03:59:20.644Z,2.8
2017-10-09T04:09:34.540Z,2.9
2017-10-09T04:19:47.784Z,2.5
2017-10-09T04:30:01.381Z,2.3
2017-10-09T04:40:15.733Z,4.3
2017-10-09T04:50:32.019Z,2.9
2017-10-09T05:00:46.383Z,2.8
2017-10-09T05:11:00.017Z,2.0
2017-10-09T05:21:17.863Z,1.0
2017-10-09T05:31:31.467Z,2.0
2017-10-09T05:41:44.833Z,1.4
2017-10-09T05:51:58.991Z,3.8
2017-10-09T06:02:13.223Z,2.1
2017-10-09T06:12:27.779Z,1.2
2017-10-09T06:23:16.265Z,6.1
2017-10-09T06:33:30.211Z,1.9
2017-10-09T06:43:43.601Z,1.4
2017-10-09T06:53:59.129Z,1.3
2017-10-09T07:11:09.121Z,16.1
2017-10-09T07:21:53.778Z,5.4
2017-10-09T07:32:38.559Z,4.4
2017-10-09T07:43:22.957Z,5.7
2017-10-09T07:53:38.296Z,1.9
2017-10-09T08:03:52.611Z,3.6
2017-10-09T08:14:06.511Z,2.1
2017-10-09T08:24:19.885Z,4.2
2017-10-09T08:34:34.042Z,1.5
2017-10-09T08:45:18.053Z,4.1
2017-10-09T08:55:32.175Z,3.2
2017-10-09T09:05:46.416Z,1.7
2017-10-09T09:16:00.852Z,2.9
2017-10-09T09:26:14.774Z,2.7
2017-10-09T09:36:59.586Z,2.7
2017-10-09T09:47:14.654Z,1.9
2017-10-09T09:57:28.760Z,1.4
2017-10-09T10:07:40.136Z,2.7
2017-10-09T10:17:54.527Z,1.4
2017-10-09T10:28:08.504Z,1.8
2017-10-09T10:38:19.567Z,1.9
2017-10-09T10:48:33.957Z,2.2
2017-10-09T10:58:48.160Z,2.4
2017-10-09T11:09:02.399Z,2.2
2017-10-09T11:19:17.363Z,2.6
2017-10-09T11:29:30.818Z,1.8
2017-10-09T11:40:15.789Z,4.2
2017-10-09T11:50:29.870Z,3.9
2017-10-09T12:01:14.872Z,2.4
2017-10-09T12:12:11.825Z,4.2
2017-10-09T12:22:26.384Z,2.2
2017-10-09T12:33:10.458Z,3.9
2017-10-09T12:43:24.602Z,1.5
2017-10-09T12:54:09.241Z,3.7
2017-10-09T13:04:31.881Z,4.2
2017-10-09T13:14:45.827Z,3.2
2017-10-09T13:25:00.457Z,3.5
2017-10-09T13:35:14.634Z,4.1
2017-10-09T13:45:29.207Z,5.0
2017-10-09T13:55:43.139Z,4.3
2017-10-09T14:05:57.342Z,3.7
2017-10-09T14:16:11.462Z,3.8
2017-10-09T14:26:25.622Z,4.8
2017-10-09T14:46:50.907Z,4.7
2017-10-09T14:57:04.924Z,5.7
2017-10-09T15:07:16.424Z,5.0
2017-10-09T15:17:30.657Z,6.1
2017-10-09T15:27:45.012Z,8.4
2017-10-09T15:37:58.875Z,5.5
2017-10-09T15:48:10.945Z,5.2
2017-10-09T15:58:28.469Z,4.9
2017-10-09T16:08:43.219Z,7.0
2017-10-09T16:18:56.949Z,7.1
2017-10-09T16:29:15.320Z,4.7
2017-10-09T16:40:02.000Z,6.4
2017-10-09T16:50:30.084Z,7.3
2017-10-09T17:01:22.533Z,7.5
2017-10-09T17:11:38.327Z,4.0
2017-10-09T17:22:25.978Z,5.0
2017-10-09T17:32:40.407Z,4.3
2017-10-09T17:43:00.425Z,5.3
2017-10-09T17:53:14.920Z,4.6
2017-10-09T18:04:07.278Z,9.1
2017-10-09T18:14:22.100Z,7.4
2017-10-09T18:24:56.578Z,5.7
2017-10-09T18:35:17.736Z,5.4
2017-10-09T18:46:03.726Z,7.0
2017-10-09T18:56:17.870Z,5.5
2017-10-09T19:07:11.396Z,7.7
2017-10-09T19:17:28.337Z,2.3
2017-10-09T19:27:45.972Z,10.9
2017-10-09T19:38:30.582Z,8.3
2017-10-09T19:48:45.081Z,9.4
2017-10-09T20:02:25.603Z,15.7
2017-10-09T20:12:38.972Z,5.5
2017-10-09T20:22:52.355Z,8.8
2017-10-09T20:33:06.558Z,5.1
2017-10-09T20:43:17.838Z,5.3
2017-10-09T20:54:02.592Z,9.6
2017-10-09T21:04:47.650Z,6.8
2017-10-09T21:15:32.232Z,6.9
2017-10-09T21:25:43.676Z,5.8
2017-10-09T21:35:58.045Z,10.2
2017-10-09T21:46:11.905Z,7.8
2017-10-09T21:56:26.951Z,8.0
2017-10-09T22:07:19.950Z,11.4
2017-10-09T22:17:34.036Z,5.8
2017-10-09T22:27:48.556Z,7.4
2017-10-09T22:39:10.538Z,16.8
2017-10-09T22:49:23.948Z,12.4
2017-10-09T22:59:38.943Z,9.6
2017-10-09T23:10:23.038Z,12.8
2017-10-09T23:20:37.224Z,11.9
2017-10-09T23:30:51.421Z,13.6
2017-10-09T23:41:36.038Z,15.7
2017-10-09T23:51:49.605Z,14.9
